sensor_id;sensor_type;location;lat;lon;timestamp;temperature;humidity
30572;DHT22;17348;50.948;10.696;2023-03-21T00:02:22;9.20;99.90
30572;DHT22;17348;50.948;10.696;2023-03-21T00:05:25;9.20;99.90
30572;DHT22;17348;50.948;10.696;2023-03-21T00:08:27;9.20;99.90
30572;DHT22;17348;50.948;10.696;2023-03-21T00:11:29;9.20;99.90
30572;DHT22;17348;50.948;10.696;2023-03-21T00:14:32;9.20;99.90
30572;DHT22;17348;50.948;10.696;2023-03-21T00:17:36;9.20;99.90
30572;DHT22;17348;50.948;10.696;2023-03-21T00:20:39;9.20;99.90
30572;DHT22;17348;50.948;10.696;2023-03-21T00:23:42;9.20;99.90
30572;DHT22;17348;50.948;10.696;2023-03-21T00:26:44;9.20;99.90
30572;DHT22;17348;50.948;10.696;2023-03-21T00:29:47;9.20;99.90
30572;DHT22;17348;50.948;10.696;2023-03-21T00:32:51;9.20;99.90
30572;DHT22;17348;50.948;10.696;2023-03-21T00:35:54;9.20;99.90
30572;DHT22;17348;50.948;10.696;2023-03-21T00:38:57;9.20;99.90
30572;DHT22;17348;50.948;10.696;2023-03-21T00:42:00;9.20;99.90
30572;DHT22;17348;50.948;10.696;2023-03-21T00:45:03;9.20;99.90
30572;DHT22;17348;50.948;10.696;2023-03-21T00:48:07;9.20;99.90
30572;DHT22;17348;50.948;10.696;2023-03-21T00:51:12;9.20;99.90
30572;DHT22;17348;50.948;10.696;2023-03-21T00:54:15;9.20;99.90
30572;DHT22;17348;50.948;10.696;2023-03-21T00:57:18;9.20;99.90
30572;DHT22;17348;50.948;10.696;2023-03-21T01:00:20;9.20;99.90
30572;DHT22;17348;50.948;10.696;2023-03-21T01:03:24;9.20;99.90
30572;DHT22;17348;50.948;10.696;2023-03-21T01:06:26;9.20;99.90
30572;DHT22;17348;50.948;10.696;2023-03-21T01:09:29;9.20;99.90
30572;DHT22;17348;50.948;10.696;2023-03-21T01:12:31;9.20;99.90
30572;DHT22;17348;50.948;10.696;2023-03-21T01:15:34;9.20;99.90
30572;DHT22;17348;50.948;10.696;2023-03-21T01:18:39;9.20;99.90
30572;DHT22;17348;50.948;10.696;2023-03-21T01:21:42;9.20;99.90
30572;DHT22;17348;50.948;10.696;2023-03-21T01:24:44;9.20;99.90
30572;DHT22;17348;50.948;10.696;2023-03-21T01:27:47;9.20;99.90
30572;DHT22;17348;50.948;10.696;2023-03-21T01:30:50;9.20;99.90
30572;DHT22;17348;50.948;10.696;2023-03-21T01:33:54;9.30;99.90
30572;DHT22;17348;50.948;10.696;2023-03-21T01:36:57;9.30;99.90
30572;DHT22;17348;50.948;10.696;2023-03-21T01:39:59;9.20;99.90
30572;DHT22;17348;50.948;10.696;2023-03-21T01:43:01;9.30;99.90
30572;DHT22;17348;50.948;10.696;2023-03-21T01:49:35;9.20;99.90
30572;DHT22;17348;50.948;10.696;2023-03-21T01:52:39;9.20;99.90
30572;DHT22;17348;50.948;10.696;2023-03-21T01:55:42;9.20;99.90
30572;DHT22;17348;50.948;10.696;2023-03-21T01:58:45;9.20;99.90
30572;DHT22;17348;50.948;10.696;2023-03-21T02:01:49;9.20;99.90
30572;DHT22;17348;50.948;10.696;2023-03-21T02:04:54;9.20;99.90
30572;DHT22;17348;50.948;10.696;2023-03-21T02:07:59;9.20;99.90
30572;DHT22;17348;50.948;10.696;2023-03-21T02:11:02;9.20;99.90
30572;DHT22;17348;50.948;10.696;2023-03-21T02:14:04;9.30;99.90
30572;DHT22;17348;50.948;10.696;2023-03-21T02:17:13;9.30;99.90
30572;DHT22;17348;50.948;10.696;2023-03-21T02:20:36;9.30;99.90
30572;DHT22;17348;50.948;10.696;2023-03-21T02:27:19;9.30;99.90
30572;DHT22;17348;50.948;10.696;2023-03-21T02:30:40;9.40;99.90
30572;DHT22;17348;50.948;10.696;2023-03-21T02:33:51;9.30;99.90
30572;DHT22;17348;50.948;10.696;2023-03-21T02:37:09;9.40;99.90
30572;DHT22;17348;50.948;10.696;2023-03-21T02:40:17;9.40;99.90
30572;DHT22;17348;50.948;10.696;2023-03-21T02:43:29;9.50;99.90
30572;DHT22;17348;50.948;10.696;2023-03-21T02:46:38;9.40;99.90
30572;DHT22;17348;50.948;10.696;2023-03-21T02:49:46;9.40;99.90
30572;DHT22;17348;50.948;10.696;2023-03-21T02:52:53;9.40;99.90
30572;DHT22;17348;50.948;10.696;2023-03-21T02:55:57;9.40;99.90
30572;DHT22;17348;50.948;10.696;2023-03-21T02:59:00;9.40;99.90
30572;DHT22;17348;50.948;10.696;2023-03-21T03:02:04;9.40;99.90
30572;DHT22;17348;50.948;10.696;2023-03-21T03:05:14;9.30;99.90
30572;DHT22;17348;50.948;10.696;2023-03-21T03:08:26;9.30;99.90
30572;DHT22;17348;50.948;10.696;2023-03-21T03:11:32;9.30;99.90
30572;DHT22;17348;50.948;10.696;2023-03-21T03:14:45;9.30;99.90
30572;DHT22;17348;50.948;10.696;2023-03-21T03:17:56;9.30;99.90
30572;DHT22;17348;50.948;10.696;2023-03-21T03:21:06;9.30;99.90
30572;DHT22;17348;50.948;10.696;2023-03-21T03:24:15;9.30;99.90
30572;DHT22;17348;50.948;10.696;2023-03-21T03:27:23;9.40;99.90
30572;DHT22;17348;50.948;10.696;2023-03-21T03:30:27;9.30;99.90
30572;DHT22;17348;50.948;10.696;2023-03-21T03:33:31;9.30;99.90
30572;DHT22;17348;50.948;10.696;2023-03-21T03:36:39;9.20;99.90
30572;DHT22;17348;50.948;10.696;2023-03-21T03:39:46;9.20;99.90
30572;DHT22;17348;50.948;10.696;2023-03-21T03:42:52;9.20;99.90
30572;DHT22;17348;50.948;10.696;2023-03-21T03:45:58;9.20;99.90
30572;DHT22;17348;50.948;10.696;2023-03-21T03:49:06;9.20;99.90
30572;DHT22;17348;50.948;10.696;2023-03-21T03:52:15;9.20;99.90
30572;DHT22;17348;50.948;10.696;2023-03-21T03:55:21;9.10;99.90
30572;DHT22;17348;50.948;10.696;2023-03-21T03:58:26;9.10;99.90
30572;DHT22;17348;50.948;10.696;2023-03-21T04:01:31;9.10;99.90
30572;DHT22;17348;50.948;10.696;2023-03-21T04:04:34;9.10;99.90
30572;DHT22;17348;50.948;10.696;2023-03-21T04:07:36;9.10;99.90
30572;DHT22;17348;50.948;10.696;2023-03-21T04:10:40;9.10;99.90
30572;DHT22;17348;50.948;10.696;2023-03-21T04:13:43;9.00;99.90
30572;DHT22;17348;50.948;10.696;2023-03-21T04:16:46;9.00;99.90
30572;DHT22;17348;50.948;10.696;2023-03-21T04:19:49;9.00;99.90
30572;DHT22;17348;50.948;10.696;2023-03-21T04:22:51;9.00;99.90
30572;DHT22;17348;50.948;10.696;2023-03-21T04:25:55;9.00;99.90
30572;DHT22;17348;50.948;10.696;2023-03-21T04:28:58;9.00;99.90
30572;DHT22;17348;50.948;10.696;2023-03-21T04:32:01;8.90;99.90
30572;DHT22;17348;50.948;10.696;2023-03-21T04:35:03;8.90;99.90
30572;DHT22;17348;50.948;10.696;2023-03-21T04:38:06;8.90;99.90
30572;DHT22;17348;50.948;10.696;2023-03-21T04:41:09;8.90;99.90
30572;DHT22;17348;50.948;10.696;2023-03-21T04:44:13;8.90;99.90
30572;DHT22;17348;50.948;10.696;2023-03-21T04:47:16;8.90;99.90
30572;DHT22;17348;50.948;10.696;2023-03-21T04:50:20;8.90;99.90
30572;DHT22;17348;50.948;10.696;2023-03-21T04:53:22;8.90;99.90
30572;DHT22;17348;50.948;10.696;2023-03-21T04:56:27;8.90;99.90
30572;DHT22;17348;50.948;10.696;2023-03-21T04:59:32;8.90;99.90
30572;DHT22;17348;50.948;10.696;2023-03-21T05:02:35;8.90;99.90
30572;DHT22;17348;50.948;10.696;2023-03-21T05:05:37;8.90;99.90
30572;DHT22;17348;50.948;10.696;2023-03-21T05:08:40;8.90;99.90
30572;DHT22;17348;50.948;10.696;2023-03-21T05:11:44;9.00;99.90
30572;DHT22;17348;50.948;10.696;2023-03-21T05:14:46;9.00;99.90
30572;DHT22;17348;50.948;10.696;2023-03-21T05:17:48;9.00;99.90
30572;DHT22;17348;50.948;10.696;2023-03-21T05:20:51;9.00;99.90
30572;DHT22;17348;50.948;10.696;2023-03-21T05:23:55;9.00;99.90
30572;DHT22;17348;50.948;10.696;2023-03-21T05:27:00;9.10;99.90
30572;DHT22;17348;50.948;10.696;2023-03-21T05:30:06;9.00;99.90
30572;DHT22;17348;50.948;10.696;2023-03-21T05:33:08;9.00;99.90
30572;DHT22;17348;50.948;10.696;2023-03-21T05:36:11;9.00;99.90
30572;DHT22;17348;50.948;10.696;2023-03-21T05:39:13;9.00;99.90
30572;DHT22;17348;50.948;10.696;2023-03-21T05:42:18;8.90;99.90
30572;DHT22;17348;50.948;10.696;2023-03-21T05:45:20;9.00;99.90
30572;DHT22;17348;50.948;10.696;2023-03-21T05:48:22;9.00;99.90
30572;DHT22;17348;50.948;10.696;2023-03-21T05:51:25;9.00;99.90
30572;DHT22;17348;50.948;10.696;2023-03-21T05:54:27;9.00;99.90
30572;DHT22;17348;50.948;10.696;2023-03-21T05:57:31;9.00;99.90
30572;DHT22;17348;50.948;10.696;2023-03-21T06:00:39;9.00;99.90
30572;DHT22;17348;50.948;10.696;2023-03-21T06:03:41;9.10;99.90
30572;DHT22;17348;50.948;10.696;2023-03-21T06:06:43;9.20;99.90
30572;DHT22;17348;50.948;10.696;2023-03-21T06:09:46;9.20;99.90
30572;DHT22;17348;50.948;10.696;2023-03-21T06:12:49;9.40;99.90
30572;DHT22;17348;50.948;10.696;2023-03-21T06:16:01;9.50;99.90
30572;DHT22;17348;50.948;10.696;2023-03-21T06:19:04;9.80;99.90
30572;DHT22;17348;50.948;10.696;2023-03-21T06:22:06;10.10;99.90
30572;DHT22;17348;50.948;10.696;2023-03-21T06:25:09;11.90;99.90
30572;DHT22;17348;50.948;10.696;2023-03-21T06:28:13;13.00;99.90
30572;DHT22;17348;50.948;10.696;2023-03-21T06:31:16;12.60;99.90
30572;DHT22;17348;50.948;10.696;2023-03-21T06:34:18;12.40;99.90
30572;DHT22;17348;50.948;10.696;2023-03-21T06:37:20;12.10;99.90
30572;DHT22;17348;50.948;10.696;2023-03-21T06:40:23;11.90;99.90
30572;DHT22;17348;50.948;10.696;2023-03-21T06:43:27;11.70;99.90
30572;DHT22;17348;50.948;10.696;2023-03-21T06:46:29;11.40;99.90
30572;DHT22;17348;50.948;10.696;2023-03-21T06:49:31;11.20;99.90
30572;DHT22;17348;50.948;10.696;2023-03-21T06:52:34;11.40;99.90
30572;DHT22;17348;50.948;10.696;2023-03-21T06:55:36;12.80;99.90
30572;DHT22;17348;50.948;10.696;2023-03-21T06:58:41;13.90;99.90
30572;DHT22;17348;50.948;10.696;2023-03-21T07:01:46;13.70;99.90
30572;DHT22;17348;50.948;10.696;2023-03-21T07:04:48;13.50;99.90
30572;DHT22;17348;50.948;10.696;2023-03-21T07:07:51;13.20;99.90
30572;DHT22;17348;50.948;10.696;2023-03-21T07:10:55;13.10;99.90
30572;DHT22;17348;50.948;10.696;2023-03-21T07:13:59;12.90;99.90
30572;DHT22;17348;50.948;10.696;2023-03-21T07:17:02;12.90;99.90
30572;DHT22;17348;50.948;10.696;2023-03-21T07:20:05;12.90;99.90
30572;DHT22;17348;50.948;10.696;2023-03-21T07:23:08;13.10;99.90
30572;DHT22;17348;50.948;10.696;2023-03-21T07:26:10;13.60;99.90
30572;DHT22;17348;50.948;10.696;2023-03-21T07:29:14;15.00;99.90
30572;DHT22;17348;50.948;10.696;2023-03-21T07:32:17;16.20;99.90
30572;DHT22;17348;50.948;10.696;2023-03-21T07:35:20;16.40;99.90
30572;DHT22;17348;50.948;10.696;2023-03-21T07:38:22;16.70;99.90
30572;DHT22;17348;50.948;10.696;2023-03-21T07:41:25;16.30;99.90
30572;DHT22;17348;50.948;10.696;2023-03-21T07:44:29;16.10;99.90
30572;DHT22;17348;50.948;10.696;2023-03-21T07:47:33;15.70;99.90
30572;DHT22;17348;50.948;10.696;2023-03-21T07:50:36;15.10;99.90
30572;DHT22;17348;50.948;10.696;2023-03-21T07:53:39;15.00;99.90
30572;DHT22;17348;50.948;10.696;2023-03-21T07:56:41;14.80;99.90
30572;DHT22;17348;50.948;10.696;2023-03-21T07:59:45;14.80;99.90
30572;DHT22;17348;50.948;10.696;2023-03-21T08:02:49;14.70;99.90
30572;DHT22;17348;50.948;10.696;2023-03-21T08:05:54;14.70;99.90
30572;DHT22;17348;50.948;10.696;2023-03-21T08:08:57;15.10;99.90
30572;DHT22;17348;50.948;10.696;2023-03-21T08:11:59;15.40;99.90
30572;DHT22;17348;50.948;10.696;2023-03-21T08:15:03;15.70;99.90
30572;DHT22;17348;50.948;10.696;2023-03-21T08:18:06;15.60;99.90
30572;DHT22;17348;50.948;10.696;2023-03-21T08:21:09;15.50;99.90
30572;DHT22;17348;50.948;10.696;2023-03-21T08:24:11;15.90;99.90
30572;DHT22;17348;50.948;10.696;2023-03-21T08:27:14;16.50;99.90
30572;DHT22;17348;50.948;10.696;2023-03-21T08:30:19;17.10;99.90
30572;DHT22;17348;50.948;10.696;2023-03-21T08:33:22;17.10;99.90
30572;DHT22;17348;50.948;10.696;2023-03-21T08:36:24;17.40;99.90
30572;DHT22;17348;50.948;10.696;2023-03-21T08:39:27;17.80;99.90
30572;DHT22;17348;50.948;10.696;2023-03-21T08:42:29;18.20;99.90
30572;DHT22;17348;50.948;10.696;2023-03-21T08:45:33;18.30;99.90
30572;DHT22;17348;50.948;10.696;2023-03-21T08:48:36;18.10;99.90
30572;DHT22;17348;50.948;10.696;2023-03-21T08:51:38;17.80;99.90
30572;DHT22;17348;50.948;10.696;2023-03-21T08:54:41;17.70;99.90
30572;DHT22;17348;50.948;10.696;2023-03-21T08:57:45;17.50;99.90
30572;DHT22;17348;50.948;10.696;2023-03-21T09:00:49;17.10;99.90
30572;DHT22;17348;50.948;10.696;2023-03-21T09:03:52;16.80;99.90
30572;DHT22;17348;50.948;10.696;2023-03-21T09:06:54;16.50;99.90
30572;DHT22;17348;50.948;10.696;2023-03-21T09:09:56;16.20;99.90
30572;DHT22;17348;50.948;10.696;2023-03-21T09:13:00;15.80;99.90
30572;DHT22;17348;50.948;10.696;2023-03-21T09:16:04;15.80;99.90
30572;DHT22;17348;50.948;10.696;2023-03-21T09:19:07;15.60;99.90
30572;DHT22;17348;50.948;10.696;2023-03-21T09:22:09;15.40;99.90
30572;DHT22;17348;50.948;10.696;2023-03-21T09:25:18;15.40;99.90
30572;DHT22;17348;50.948;10.696;2023-03-21T09:28:21;15.20;99.90
30572;DHT22;17348;50.948;10.696;2023-03-21T09:31:25;15.10;99.90
30572;DHT22;17348;50.948;10.696;2023-03-21T09:34:28;15.30;99.90
30572;DHT22;17348;50.948;10.696;2023-03-21T09:37:31;15.40;99.90
30572;DHT22;17348;50.948;10.696;2023-03-21T09:40:53;15.60;99.90
30572;DHT22;17348;50.948;10.696;2023-03-21T09:44:07;15.80;99.90
30572;DHT22;17348;50.948;10.696;2023-03-21T09:47:17;16.00;99.90
30572;DHT22;17348;50.948;10.696;2023-03-21T09:50:23;16.20;99.90
30572;DHT22;17348;50.948;10.696;2023-03-21T09:53:32;16.40;99.90
30572;DHT22;17348;50.948;10.696;2023-03-21T09:56:37;16.50;99.90
30572;DHT22;17348;50.948;10.696;2023-03-21T09:59:43;16.60;99.90
30572;DHT22;17348;50.948;10.696;2023-03-21T10:02:49;16.70;99.90
30572;DHT22;17348;50.948;10.696;2023-03-21T10:05:55;16.90;99.90
30572;DHT22;17348;50.948;10.696;2023-03-21T10:09:02;16.90;99.90
30572;DHT22;17348;50.948;10.696;2023-03-21T10:12:12;16.80;99.90
30572;DHT22;17348;50.948;10.696;2023-03-21T10:15:19;16.70;99.90
30572;DHT22;17348;50.948;10.696;2023-03-21T10:18:26;16.50;99.90
30572;DHT22;17348;50.948;10.696;2023-03-21T10:21:30;16.60;99.90
30572;DHT22;17348;50.948;10.696;2023-03-21T10:24:33;16.70;99.90
30572;DHT22;17348;50.948;10.696;2023-03-21T10:27:36;16.90;99.90
30572;DHT22;17348;50.948;10.696;2023-03-21T10:30:40;16.80;99.90
30572;DHT22;17348;50.948;10.696;2023-03-21T10:33:46;16.80;99.90
30572;DHT22;17348;50.948;10.696;2023-03-21T10:36:50;16.80;99.90
30572;DHT22;17348;50.948;10.696;2023-03-21T10:39:53;16.80;99.90
30572;DHT22;17348;50.948;10.696;2023-03-21T10:43:14;16.90;99.90
30572;DHT22;17348;50.948;10.696;2023-03-21T10:46:19;16.90;99.90
30572;DHT22;17348;50.948;10.696;2023-03-21T10:49:25;16.90;99.90
30572;DHT22;17348;50.948;10.696;2023-03-21T10:52:32;16.70;99.90
30572;DHT22;17348;50.948;10.696;2023-03-21T10:55:39;16.50;99.90
30572;DHT22;17348;50.948;10.696;2023-03-21T10:58:45;16.40;99.90
30572;DHT22;17348;50.948;10.696;2023-03-21T11:01:49;16.40;99.90
30572;DHT22;17348;50.948;10.696;2023-03-21T11:04:54;16.40;99.90
30572;DHT22;17348;50.948;10.696;2023-03-21T11:08:00;16.50;99.90
30572;DHT22;17348;50.948;10.696;2023-03-21T11:11:05;16.60;99.90
30572;DHT22;17348;50.948;10.696;2023-03-21T11:14:24;16.70;99.90
30572;DHT22;17348;50.948;10.696;2023-03-21T11:17:28;16.60;99.90
30572;DHT22;17348;50.948;10.696;2023-03-21T11:20:33;16.80;99.90
30572;DHT22;17348;50.948;10.696;2023-03-21T11:23:39;16.90;99.90
30572;DHT22;17348;50.948;10.696;2023-03-21T11:26:46;16.80;99.90
30572;DHT22;17348;50.948;10.696;2023-03-21T11:29:50;16.80;99.90
30572;DHT22;17348;50.948;10.696;2023-03-21T11:32:54;16.80;99.90
30572;DHT22;17348;50.948;10.696;2023-03-21T11:36:00;16.70;99.90
30572;DHT22;17348;50.948;10.696;2023-03-21T11:39:14;16.90;99.90
30572;DHT22;17348;50.948;10.696;2023-03-21T11:42:27;16.90;99.90
30572;DHT22;17348;50.948;10.696;2023-03-21T11:45:32;16.80;99.90
30572;DHT22;17348;50.948;10.696;2023-03-21T11:48:38;16.90;99.90
30572;DHT22;17348;50.948;10.696;2023-03-21T11:51:48;17.30;99.90
30572;DHT22;17348;50.948;10.696;2023-03-21T11:55:07;17.40;99.90
30572;DHT22;17348;50.948;10.696;2023-03-21T11:58:24;17.50;99.90
30572;DHT22;17348;50.948;10.696;2023-03-21T12:01:36;17.50;99.90
30572;DHT22;17348;50.948;10.696;2023-03-21T12:04:45;17.70;99.90
30572;DHT22;17348;50.948;10.696;2023-03-21T12:07:58;17.60;99.90
30572;DHT22;17348;50.948;10.696;2023-03-21T12:11:10;17.60;99.90
30572;DHT22;17348;50.948;10.696;2023-03-21T12:14:20;17.60;99.90
30572;DHT22;17348;50.948;10.696;2023-03-21T12:17:34;17.60;99.90
30572;DHT22;17348;50.948;10.696;2023-03-21T12:20:43;17.50;99.90
30572;DHT22;17348;50.948;10.696;2023-03-21T12:23:59;17.40;99.90
30572;DHT22;17348;50.948;10.696;2023-03-21T12:27:10;17.20;99.90
30572;DHT22;17348;50.948;10.696;2023-03-21T12:30:30;17.20;99.90
30572;DHT22;17348;50.948;10.696;2023-03-21T12:33:47;17.10;99.90
30572;DHT22;17348;50.948;10.696;2023-03-21T12:37:02;17.10;99.90
30572;DHT22;17348;50.948;10.696;2023-03-21T12:40:24;17.30;99.90
30572;DHT22;17348;50.948;10.696;2023-03-21T12:43:29;17.20;99.90
30572;DHT22;17348;50.948;10.696;2023-03-21T12:46:38;17.10;99.90
30572;DHT22;17348;50.948;10.696;2023-03-21T12:49:46;17.20;99.90
30572;DHT22;17348;50.948;10.696;2023-03-21T12:52:53;17.20;99.90
30572;DHT22;17348;50.948;10.696;2023-03-21T12:56:01;17.20;99.90
30572;DHT22;17348;50.948;10.696;2023-03-21T12:59:12;17.20;99.90
30572;DHT22;17348;50.948;10.696;2023-03-21T13:02:21;17.20;99.90
30572;DHT22;17348;50.948;10.696;2023-03-21T13:05:27;17.20;99.90
30572;DHT22;17348;50.948;10.696;2023-03-21T13:08:33;17.20;99.90
30572;DHT22;17348;50.948;10.696;2023-03-21T13:11:38;17.20;99.90
30572;DHT22;17348;50.948;10.696;2023-03-21T13:14:48;17.10;99.90
30572;DHT22;17348;50.948;10.696;2023-03-21T13:17:59;17.10;99.90
30572;DHT22;17348;50.948;10.696;2023-03-21T13:21:10;17.00;99.90
30572;DHT22;17348;50.948;10.696;2023-03-21T13:24:22;17.00;99.90
30572;DHT22;17348;50.948;10.696;2023-03-21T13:27:29;16.90;99.90
30572;DHT22;17348;50.948;10.696;2023-03-21T13:30:32;16.80;99.90
30572;DHT22;17348;50.948;10.696;2023-03-21T13:33:35;16.70;99.90
30572;DHT22;17348;50.948;10.696;2023-03-21T13:36:39;16.60;99.90
30572;DHT22;17348;50.948;10.696;2023-03-21T13:39:43;16.40;99.90
30572;DHT22;17348;50.948;10.696;2023-03-21T13:42:50;16.40;99.90
30572;DHT22;17348;50.948;10.696;2023-03-21T13:45:53;16.20;99.90
30572;DHT22;17348;50.948;10.696;2023-03-21T13:48:58;16.20;99.90
30572;DHT22;17348;50.948;10.696;2023-03-21T13:52:24;16.20;99.90
30572;DHT22;17348;50.948;10.696;2023-03-21T13:55:28;16.10;99.90
30572;DHT22;17348;50.948;10.696;2023-03-21T13:58:33;16.20;99.90
30572;DHT22;17348;50.948;10.696;2023-03-21T14:01:38;16.10;99.90
30572;DHT22;17348;50.948;10.696;2023-03-21T14:04:42;16.10;99.90
30572;DHT22;17348;50.948;10.696;2023-03-21T14:07:48;16.10;99.90
30572;DHT22;17348;50.948;10.696;2023-03-21T14:10:55;15.90;99.90
30572;DHT22;17348;50.948;10.696;2023-03-21T14:14:01;15.90;99.90
30572;DHT22;17348;50.948;10.696;2023-03-21T14:17:11;15.80;99.90
30572;DHT22;17348;50.948;10.696;2023-03-21T14:20:19;15.60;99.90
30572;DHT22;17348;50.948;10.696;2023-03-21T14:23:22;15.60;99.90
30572;DHT22;17348;50.948;10.696;2023-03-21T14:26:27;15.50;99.90
30572;DHT22;17348;50.948;10.696;2023-03-21T14:29:33;15.50;99.90
30572;DHT22;17348;50.948;10.696;2023-03-21T14:32:36;15.50;99.90
30572;DHT22;17348;50.948;10.696;2023-03-21T14:35:40;15.40;99.90
30572;DHT22;17348;50.948;10.696;2023-03-21T14:38:53;15.30;99.90
30572;DHT22;17348;50.948;10.696;2023-03-21T14:42:02;15.10;99.90
30572;DHT22;17348;50.948;10.696;2023-03-21T14:45:16;15.10;99.90
30572;DHT22;17348;50.948;10.696;2023-03-21T14:48:20;15.10;99.90
30572;DHT22;17348;50.948;10.696;2023-03-21T14:51:23;15.10;99.90
30572;DHT22;17348;50.948;10.696;2023-03-21T14:54:26;15.10;99.90
30572;DHT22;17348;50.948;10.696;2023-03-21T14:57:31;15.00;99.90
30572;DHT22;17348;50.948;10.696;2023-03-21T15:00:35;15.00;99.90
30572;DHT22;17348;50.948;10.696;2023-03-21T15:03:38;14.90;99.90
30572;DHT22;17348;50.948;10.696;2023-03-21T15:06:51;14.80;99.90
30572;DHT22;17348;50.948;10.696;2023-03-21T15:09:56;14.70;99.90
30572;DHT22;17348;50.948;10.696;2023-03-21T15:13:00;14.60;99.90
30572;DHT22;17348;50.948;10.696;2023-03-21T15:16:05;14.50;99.90
30572;DHT22;17348;50.948;10.696;2023-03-21T15:19:12;14.50;99.90
30572;DHT22;17348;50.948;10.696;2023-03-21T15:22:22;14.40;99.90
30572;DHT22;17348;50.948;10.696;2023-03-21T15:25:29;14.30;99.90
30572;DHT22;17348;50.948;10.696;2023-03-21T15:28:32;14.20;99.90
30572;DHT22;17348;50.948;10.696;2023-03-21T15:31:39;14.10;99.90
30572;DHT22;17348;50.948;10.696;2023-03-21T15:34:42;14.10;99.90
30572;DHT22;17348;50.948;10.696;2023-03-21T15:37:52;13.90;99.90
30572;DHT22;17348;50.948;10.696;2023-03-21T15:41:13;13.80;99.90
30572;DHT22;17348;50.948;10.696;2023-03-21T15:44:20;13.70;99.90
30572;DHT22;17348;50.948;10.696;2023-03-21T15:47:40;13.70;99.90
30572;DHT22;17348;50.948;10.696;2023-03-21T15:50:49;13.70;99.90
30572;DHT22;17348;50.948;10.696;2023-03-21T15:53:53;13.50;99.90
30572;DHT22;17348;50.948;10.696;2023-03-21T15:56:57;13.50;99.90
30572;DHT22;17348;50.948;10.696;2023-03-21T16:00:08;13.50;99.90
30572;DHT22;17348;50.948;10.696;2023-03-21T16:03:22;13.40;99.90
30572;DHT22;17348;50.948;10.696;2023-03-21T16:06:29;13.30;99.90
30572;DHT22;17348;50.948;10.696;2023-03-21T16:09:44;13.20;99.90
30572;DHT22;17348;50.948;10.696;2023-03-21T16:12:48;13.20;99.90
30572;DHT22;17348;50.948;10.696;2023-03-21T16:15:50;13.10;99.90
30572;DHT22;17348;50.948;10.696;2023-03-21T16:18:55;13.00;99.90
30572;DHT22;17348;50.948;10.696;2023-03-21T16:21:58;13.00;99.90
30572;DHT22;17348;50.948;10.696;2023-03-21T16:25:00;13.00;99.90
30572;DHT22;17348;50.948;10.696;2023-03-21T16:28:03;13.00;99.90
30572;DHT22;17348;50.948;10.696;2023-03-21T16:31:10;12.90;99.90
30572;DHT22;17348;50.948;10.696;2023-03-21T16:34:15;12.80;99.90
30572;DHT22;17348;50.948;10.696;2023-03-21T16:37:17;12.80;99.90
30572;DHT22;17348;50.948;10.696;2023-03-21T16:40:25;12.70;99.90
30572;DHT22;17348;50.948;10.696;2023-03-21T16:43:28;12.50;99.90
30572;DHT22;17348;50.948;10.696;2023-03-21T16:46:31;12.50;99.90
30572;DHT22;17348;50.948;10.696;2023-03-21T16:49:35;12.40;99.90
30572;DHT22;17348;50.948;10.696;2023-03-21T16:52:37;12.40;99.90
30572;DHT22;17348;50.948;10.696;2023-03-21T16:55:39;12.40;99.90
30572;DHT22;17348;50.948;10.696;2023-03-21T16:58:42;12.40;99.90
30572;DHT22;17348;50.948;10.696;2023-03-21T17:01:45;12.30;99.90
30572;DHT22;17348;50.948;10.696;2023-03-21T17:04:49;12.30;99.90
30572;DHT22;17348;50.948;10.696;2023-03-21T17:07:52;12.20;99.90
30572;DHT22;17348;50.948;10.696;2023-03-21T17:10:55;12.10;99.90
30572;DHT22;17348;50.948;10.696;2023-03-21T17:13:59;12.00;99.90
30572;DHT22;17348;50.948;10.696;2023-03-21T17:17:02;11.90;99.90
30572;DHT22;17348;50.948;10.696;2023-03-21T17:20:18;11.90;99.90
30572;DHT22;17348;50.948;10.696;2023-03-21T17:23:21;11.90;99.90
30572;DHT22;17348;50.948;10.696;2023-03-21T17:26:25;11.90;99.90
30572;DHT22;17348;50.948;10.696;2023-03-21T17:29:28;11.90;99.90
30572;DHT22;17348;50.948;10.696;2023-03-21T17:32:30;11.80;99.90
30572;DHT22;17348;50.948;10.696;2023-03-21T17:35:34;11.80;99.90
30572;DHT22;17348;50.948;10.696;2023-03-21T17:38:36;11.80;99.90
30572;DHT22;17348;50.948;10.696;2023-03-21T17:41:39;11.70;99.90
30572;DHT22;17348;50.948;10.696;2023-03-21T17:44:41;11.70;99.90
30572;DHT22;17348;50.948;10.696;2023-03-21T17:47:44;11.60;99.90
30572;DHT22;17348;50.948;10.696;2023-03-21T17:50:48;11.50;99.90
30572;DHT22;17348;50.948;10.696;2023-03-21T17:53:50;11.40;99.90
30572;DHT22;17348;50.948;10.696;2023-03-21T17:56:53;11.30;99.90
30572;DHT22;17348;50.948;10.696;2023-03-21T17:59:56;11.30;99.90
30572;DHT22;17348;50.948;10.696;2023-03-21T18:02:58;11.20;99.90
30572;DHT22;17348;50.948;10.696;2023-03-21T18:06:03;11.20;99.90
30572;DHT22;17348;50.948;10.696;2023-03-21T18:09:06;11.10;99.90
30572;DHT22;17348;50.948;10.696;2023-03-21T18:12:11;11.10;99.90
30572;DHT22;17348;50.948;10.696;2023-03-21T18:15:14;11.10;99.90
30572;DHT22;17348;50.948;10.696;2023-03-21T18:18:16;11.10;99.90
30572;DHT22;17348;50.948;10.696;2023-03-21T18:21:20;11.00;99.90
30572;DHT22;17348;50.948;10.696;2023-03-21T18:24:22;11.00;99.90
30572;DHT22;17348;50.948;10.696;2023-03-21T18:27:25;10.90;99.90
30572;DHT22;17348;50.948;10.696;2023-03-21T18:30:28;10.90;99.90
30572;DHT22;17348;50.948;10.696;2023-03-21T18:33:31;10.90;99.90
30572;DHT22;17348;50.948;10.696;2023-03-21T18:36:34;10.90;99.90
30572;DHT22;17348;50.948;10.696;2023-03-21T18:39:37;11.00;99.90
30572;DHT22;17348;50.948;10.696;2023-03-21T18:42:40;10.90;99.90
30572;DHT22;17348;50.948;10.696;2023-03-21T18:45:43;10.90;99.90
30572;DHT22;17348;50.948;10.696;2023-03-21T18:48:45;10.90;99.90
30572;DHT22;17348;50.948;10.696;2023-03-21T18:51:49;10.90;99.90
30572;DHT22;17348;50.948;10.696;2023-03-21T18:54:51;10.80;99.90
30572;DHT22;17348;50.948;10.696;2023-03-21T18:57:54;10.80;99.90
30572;DHT22;17348;50.948;10.696;2023-03-21T19:00:57;10.70;99.90
30572;DHT22;17348;50.948;10.696;2023-03-21T19:03:59;10.70;99.90
30572;DHT22;17348;50.948;10.696;2023-03-21T19:07:03;10.60;99.90
30572;DHT22;17348;50.948;10.696;2023-03-21T19:10:08;10.60;99.90
30572;DHT22;17348;50.948;10.696;2023-03-21T19:13:10;10.60;99.90
30572;DHT22;17348;50.948;10.696;2023-03-21T19:16:13;10.60;99.90
30572;DHT22;17348;50.948;10.696;2023-03-21T19:19:15;10.60;99.90
30572;DHT22;17348;50.948;10.696;2023-03-21T19:22:19;10.60;99.90
30572;DHT22;17348;50.948;10.696;2023-03-21T19:25:22;10.60;99.90